createdAt,value
2024-02-29T00:00:27.921Z,73.30
2024-02-29T00:05:33.490Z,73.66
2024-02-29T00:10:37.706Z,74.35
2024-02-29T00:15:42.210Z,75.30
2024-02-29T00:20:47.684Z,74.63
2024-02-29T00:25:51.871Z,74.03
2024-02-29T00:30:56.023Z,73.58
2024-02-29T00:36:09.444Z,73.75
2024-02-29T00:41:14.509Z,74.41
2024-02-29T00:46:18.720Z,74.19
2024-02-29T00:51:24.173Z,74.51
2024-02-29T00:56:28.198Z,74.86
2024-02-29T01:01:32.479Z,75.47
2024-02-29T01:06:38.470Z,76.20
2024-02-29T01:11:42.597Z,76.83
2024-02-29T01:16:46.729Z,77.07
2024-02-29T01:21:52.357Z,77.32
2024-02-29T01:26:56.501Z,78.13
2024-02-29T01:32:12.095Z,77.22
2024-02-29T01:37:23.904Z,76.14
2024-02-29T01:42:28.208Z,76.77
2024-02-29T01:47:33.456Z,76.43
2024-02-29T01:52:41.694Z,77.14
2024-02-29T01:57:46.410Z,80.60
2024-02-29T02:02:50.565Z,80.82
2024-02-29T02:07:56.577Z,81.25
2024-02-29T02:13:01.509Z,80.41
2024-02-29T02:18:06.125Z,80.57
2024-02-29T02:23:11.537Z,79.51
2024-02-29T02:28:15.746Z,80.40
2024-02-29T02:33:19.882Z,80.41
2024-02-29T02:38:25.449Z,80.66
2024-02-29T02:43:31.268Z,81.04
2024-02-29T02:48:35.506Z,80.20
2024-02-29T02:53:41.200Z,81.28
2024-02-29T02:58:45.182Z,81.65
2024-02-29T03:03:49.201Z,84.16
2024-02-29T03:08:54.551Z,83.48
2024-02-29T03:13:59.067Z,82.09
2024-02-29T03:19:06.214Z,81.48
2024-02-29T03:24:11.665Z,81.51
2024-02-29T03:29:15.839Z,82.22
2024-02-29T03:34:19.999Z,83.66
2024-02-29T03:39:25.495Z,83.62
2024-02-29T03:44:30.044Z,84.24
2024-02-29T03:49:34.172Z,84.44
2024-02-29T03:54:39.595Z,84.51
2024-02-29T03:59:45.620Z,83.52
2024-02-29T04:04:49.678Z,82.64
2024-02-29T04:09:56.342Z,82.32
2024-02-29T04:15:02.878Z,83.69
2024-02-29T04:20:09.944Z,82.42
2024-02-29T04:25:17.587Z,83.04
2024-02-29T04:30:21.856Z,82.33
2024-02-29T04:35:25.997Z,82.25
2024-02-29T04:40:31.694Z,81.87
2024-02-29T04:45:35.933Z,81.17
2024-02-29T04:50:40.051Z,80.03
2024-02-29T04:55:45.718Z,80.19
2024-02-29T05:00:50.162Z,79.89
2024-02-29T05:05:54.257Z,79.86
2024-02-29T05:11:00.436Z,80.88
2024-02-29T05:16:05.957Z,81.65
2024-02-29T05:21:12.052Z,81.81
2024-02-29T05:26:17.611Z,80.66
2024-02-29T05:31:21.737Z,80.39
2024-02-29T05:36:25.993Z,80.08
2024-02-29T05:41:32.121Z,80.14
2024-02-29T05:46:36.415Z,80.08
2024-02-29T05:51:40.379Z,80.59
2024-02-29T05:56:45.847Z,80.17
2024-02-29T06:01:50.698Z,80.66
2024-02-29T06:06:54.859Z,79.89
2024-02-29T06:12:00.483Z,80.56
2024-02-29T06:17:04.814Z,80.38
2024-02-29T06:22:09.348Z,80.08
2024-02-29T06:27:17.282Z,79.98
2024-02-29T06:32:21.684Z,80.43
2024-02-29T06:37:25.760Z,81.45
2024-02-29T06:42:31.338Z,82.07
2024-02-29T06:47:36.028Z,81.86
2024-02-29T06:52:40.312Z,81.77
2024-02-29T06:57:46.017Z,80.81
2024-02-29T07:02:50.270Z,81.10
2024-02-29T07:07:55.875Z,80.18
2024-02-29T07:13:01.948Z,80.36
2024-02-29T07:18:06.290Z,80.79
2024-02-29T07:23:13.580Z,80.81
2024-02-29T07:28:19.418Z,80.94
2024-02-29T07:33:23.686Z,80.89
2024-02-29T07:38:27.889Z,80.60
2024-02-29T07:43:33.492Z,79.40
2024-02-29T07:48:38.694Z,78.48
2024-02-29T07:53:42.782Z,79.20
2024-02-29T07:58:49.154Z,78.82
2024-02-29T08:03:53.188Z,79.08
2024-02-29T08:08:57.269Z,78.54
2024-02-29T08:14:03.248Z,76.64
2024-02-29T08:19:08.178Z,75.43
2024-02-29T08:24:12.955Z,75.62
2024-02-29T08:29:19.455Z,76.96
2024-02-29T08:34:23.696Z,76.65
2024-02-29T08:39:28.129Z,76.32
2024-02-29T08:44:33.706Z,74.90
2024-02-29T08:49:37.843Z,73.17
2024-02-29T08:54:42.198Z,73.01
2024-02-29T08:59:47.914Z,72.76
2024-02-29T09:04:52.315Z,71.73
2024-02-29T09:09:56.468Z,70.10
2024-02-29T09:15:03.777Z,70.02
2024-02-29T09:20:10.384Z,70.11
2024-02-29T09:25:14.937Z,69.59
2024-02-29T09:30:20.624Z,68.51
2024-02-29T09:35:26.256Z,66.31
2024-02-29T09:40:38.554Z,65.62
2024-02-29T09:45:54.274Z,64.94
2024-02-29T09:51:01.797Z,65.31
2024-02-29T09:56:09.280Z,64.53
2024-02-29T10:01:15.774Z,64.36
2024-02-29T10:06:21.474Z,65.47
2024-02-29T10:11:29.968Z,67.69
2024-02-29T10:16:35.721Z,68.42
2024-02-29T10:21:39.842Z,69.10
2024-02-29T10:26:43.978Z,67.09
2024-02-29T10:31:49.464Z,64.76
2024-02-29T10:36:54.006Z,63.56
2024-02-29T10:42:02.590Z,61.36
2024-02-29T10:47:11.552Z,59.50
2024-02-29T10:52:22.391Z,59.96
2024-02-29T10:57:30.231Z,58.90
2024-02-29T11:02:36.047Z,57.09
2024-02-29T11:07:40.158Z,54.93
2024-02-29T11:12:47.583Z,52.71
2024-02-29T11:17:53.206Z,49.31
2024-02-29T11:23:11.196Z,48.43
2024-02-29T11:28:17.788Z,47.56
2024-02-29T11:33:23.942Z,45.80
2024-02-29T11:38:32.993Z,44.86
2024-02-29T11:43:44.371Z,43.80
2024-02-29T11:48:52.665Z,42.52
2024-02-29T11:53:57.472Z,42.71
2024-02-29T11:59:03.382Z,42.72
2024-02-29T12:04:09.213Z,44.05
2024-02-29T12:09:13.922Z,45.30
2024-02-29T12:14:18.791Z,46.55
2024-02-29T12:19:25.192Z,47.64
2024-02-29T12:24:30.701Z,48.40
2024-02-29T12:29:35.818Z,48.86
2024-02-29T12:34:46.268Z,49.04
2024-02-29T12:39:56.278Z,49.66
2024-02-29T12:45:00.866Z,50.07
2024-02-29T12:50:09.198Z,50.71
2024-02-29T12:55:13.601Z,50.51
2024-02-29T13:00:21.914Z,50.84
2024-02-29T13:05:27.258Z,51.08
2024-02-29T13:10:31.592Z,51.46
2024-02-29T13:15:37.186Z,51.80
2024-02-29T13:20:42.561Z,51.38
2024-02-29T13:25:46.985Z,51.58
2024-02-29T13:30:52.616Z,51.05
2024-02-29T13:35:58.143Z,51.03
2024-02-29T13:41:02.158Z,50.16
2024-02-29T13:46:06.961Z,49.48
2024-02-29T13:51:12.492Z,49.16
2024-02-29T13:56:18.795Z,48.53
2024-02-29T14:01:25.314Z,49.09
2024-02-29T14:06:31.735Z,49.29
2024-02-29T14:11:35.950Z,48.08
2024-02-29T14:16:41.499Z,50.58
2024-02-29T14:21:49.682Z,52.08
2024-02-29T14:26:56.070Z,53.27
2024-02-29T14:32:02.078Z,50.81
2024-02-29T14:37:10.087Z,53.15
2024-02-29T14:42:15.596Z,50.28
2024-02-29T14:47:22.159Z,50.30
2024-02-29T14:52:28.971Z,50.81
2024-02-29T14:57:33.196Z,53.89
2024-02-29T15:02:37.271Z,53.02
2024-02-29T15:07:43.350Z,53.92
2024-02-29T15:12:51.260Z,56.05
2024-02-29T15:17:56.478Z,56.05
2024-02-29T15:23:02.157Z,55.59
2024-02-29T15:28:11.245Z,56.88
2024-02-29T15:33:17.953Z,58.73
2024-02-29T15:38:28.005Z,61.64
2024-02-29T15:43:32.411Z,62.37
2024-02-29T15:48:36.583Z,62.58
2024-02-29T15:53:42.097Z,62.24
2024-02-29T15:58:46.150Z,63.10
2024-02-29T16:03:50.395Z,59.42
2024-02-29T16:08:56.061Z,62.49
2024-02-29T16:14:01.914Z,64.75
2024-02-29T16:19:06.218Z,62.84
2024-02-29T16:24:11.957Z,64.20
2024-02-29T16:29:15.982Z,66.01
2024-02-29T16:34:21.390Z,65.50
2024-02-29T16:39:26.929Z,67.04
2024-02-29T16:44:31.172Z,67.11
2024-02-29T16:49:35.602Z,66.90
2024-02-29T16:54:41.325Z,68.21
2024-02-29T16:59:45.497Z,68.44
2024-02-29T17:04:50.774Z,68.70
2024-02-29T17:10:00.507Z,70.05
2024-02-29T17:15:05.243Z,70.07
2024-02-29T17:20:10.261Z,70.45
2024-02-29T17:25:16.019Z,70.75
2024-02-29T17:30:21.461Z,71.90
2024-02-29T17:35:29.341Z,72.35
2024-02-29T17:40:35.006Z,73.64
2024-02-29T17:45:39.109Z,74.02
2024-02-29T17:50:43.141Z,72.43
2024-02-29T17:55:49.018Z,73.67
2024-02-29T18:00:53.189Z,73.90
2024-02-29T18:06:00.597Z,73.88
2024-02-29T18:11:06.637Z,73.11
2024-02-29T18:16:10.858Z,72.89
2024-02-29T18:21:21.418Z,73.57
2024-02-29T18:26:26.880Z,73.98
2024-02-29T18:31:31.400Z,75.41
2024-02-29T18:36:38.318Z,74.48
2024-02-29T18:41:44.676Z,74.96
2024-02-29T18:46:49.210Z,74.92
2024-02-29T18:51:53.876Z,74.43
2024-02-29T18:56:59.453Z,74.60
2024-02-29T19:02:05.354Z,74.51
2024-02-29T19:07:10.491Z,73.59
2024-02-29T19:12:18.493Z,70.37
2024-02-29T19:17:23.592Z,70.07
2024-02-29T19:22:30.742Z,69.79
2024-02-29T19:27:37.341Z,69.40
2024-02-29T19:32:41.796Z,69.21
2024-02-29T19:37:46.751Z,69.18
2024-02-29T19:42:53.850Z,69.22
2024-02-29T19:48:00.062Z,69.14
2024-02-29T19:53:04.430Z,69.41
2024-02-29T19:58:13.915Z,69.33
2024-02-29T20:03:18.569Z,69.64
2024-02-29T20:08:25.796Z,70.09
2024-02-29T20:13:31.751Z,70.66
2024-02-29T20:18:36.516Z,71.25
2024-02-29T20:23:41.250Z,71.69
2024-02-29T20:28:47.126Z,71.63
2024-02-29T20:33:52.754Z,71.46
2024-02-29T20:38:57.260Z,70.96
2024-02-29T20:44:02.681Z,71.24
2024-02-29T20:49:07.290Z,71.60
2024-02-29T20:54:11.442Z,71.70
2024-02-29T20:59:16.947Z,70.95
2024-02-29T21:04:21.142Z,71.59
2024-02-29T21:09:25.251Z,71.69
2024-02-29T21:14:30.842Z,71.85
2024-02-29T21:19:35.092Z,71.61
2024-02-29T21:24:39.876Z,71.27
2024-02-29T21:29:47.787Z,71.33
2024-02-29T21:34:51.844Z,71.30
2024-02-29T21:39:57.294Z,71.19
2024-02-29T21:45:03.178Z,70.63
2024-02-29T21:50:08.171Z,70.42
2024-02-29T21:55:12.256Z,70.50
2024-02-29T22:00:18.303Z,70.13
2024-02-29T22:05:22.292Z,70.26
2024-02-29T22:10:26.783Z,70.55
2024-02-29T22:15:32.304Z,71.58
2024-02-29T22:20:36.945Z,72.12
2024-02-29T22:25:41.348Z,72.38
2024-02-29T22:30:47.893Z,73.14
2024-02-29T22:35:52.074Z,73.78
2024-02-29T22:40:56.401Z,75.38
2024-02-29T22:46:02.118Z,75.62
2024-02-29T22:51:06.998Z,76.69
2024-02-29T22:56:11.345Z,79.29
2024-02-29T23:01:17.487Z,79.92
2024-02-29T23:06:21.630Z,78.67
2024-02-29T23:11:25.783Z,78.17
2024-02-29T23:16:31.459Z,80.33
2024-02-29T23:21:35.541Z,82.81
2024-02-29T23:26:39.945Z,82.98
2024-02-29T23:31:45.553Z,80.49
2024-02-29T23:36:51.766Z,78.85
2024-02-29T23:41:56.519Z,79.88
2024-02-29T23:47:02.273Z,78.48
2024-02-29T23:52:07.435Z,80.23
2024-02-29T23:57:11.856Z,78.46
